Estación Meteorológica Peña el Pijo (Robertgarden) [ 09/25/17 15:18:43 CEST ]

Fecha Hora Presion(HPa) Temp (°C) Humedad % Rocio (°C) Viento ( m/s) Direccion Lluvia 1Hora(mm) Lluvia 24H(mm) LLuvia Total(mm)
2017-Jun-08 01:01:43 1012.600 14.9 70 9.5         1427.09
2017-Jun-08 02:01:41 1012.700 13.2 75 8.8         1427.09
2017-Jun-08 03:01:35 1012.500 11.6 78 7.9         1427.09
2017-Jun-08 04:01:30 1012.000 10.7 81 7.6         1427.09
2017-Jun-08 05:03:35 1011.500 9.9 83 7.1         1427.09
2017-Jun-08 06:01:35 1011.800 9.3 84 6.7         1427.09
2017-Jun-08 07:02:01 1011.700 8.9 85 6.5         1427.09
2017-Jun-08 08:01:41 1011.500 11.6 87 9.5         1427.09
2017-Jun-08 09:01:59 1011.300 16.8 78 12.9         1427.09
2017-Jun-08 10:01:59 1010.900 22.5 54 12.7         1427.09
2017-Jun-08 11:01:54 1010.600 26.5 38 11.0         1427.09
2017-Jun-08 12:01:49 1010.900 28.9 33 10.9         1427.09
2017-Jun-08 13:01:39 1010.600 29.9 29 9.9         1427.09
2017-Jun-08 14:01:41 1010.400 30.6 26 8.7         1427.09
2017-Jun-08 15:01:55 1009.800 30.9 27 9.5         1427.09
2017-Jun-08 16:01:39 1009.200 30.5 27 9.2         1427.09
2017-Jun-08 17:01:50 1008.700 30.5 28 9.8         1427.09
2017-Jun-08 18:01:44 1008.300 28.2 33 10.3         1427.09
2017-Jun-08 19:01:39 1008.100 28.3 35 11.3         1427.09
2017-Jun-08 20:01:32 1007.900 26.1 40 11.5         1427.09
2017-Jun-08 21:01:47 1008.200 24.1 43 10.7         1427.09
2017-Jun-08 22:01:42 1008.700 21.1 50 10.3         1427.09
2017-Jun-08 23:01:35 1009.400 19.5 55 10.2         1427.09

Temperatura Máxima:30°    Temperatura Mínima:
Presión Máxima:1012.700 Hpa    Presión Mínima:1007.900 Hpa


Volver